Time;durP1;ratioP1;P1;durP2;ratioP2;P2;SDS_P1;SDS_P2;PMS_P1;PMS_P2;Temp;Humidity;BMP_temperature;BMP_pressure;BME280_temperature;BME280_humidity;BME280_pressure;Samples;Min_cycle;Max_cycle;Signal;HPM_P1;HPM_P2
2022/03/11 00:02:27;;;;;;;;;;;23.90;99.90;;;;;;6108145;23;19935;-75
2022/03/11 00:04:54;;;;;;;;;;;24.00;99.90;;;;;;6157265;23;20386;-75
2022/03/11 00:07:21;;;;;;;;;;;24.20;99.90;;;;;;6131219;23;19930;-75
2022/03/11 00:09:47;;;;;;;;;;;24.30;99.90;;;;;;6131150;23;19900;-76
2022/03/11 00:12:14;;;;;;;;;;;23.80;99.90;;;;;;6131374;23;19905;-78
2022/03/11 00:14:40;;;;;;;;;;;23.60;99.90;;;;;;6157622;23;19909;-76
2022/03/11 00:17:07;;;;;;;;;;;23.30;99.90;;;;;;6157837;23;19917;-77
2022/03/11 00:19:34;;;;;;;;;;;23.40;99.90;;;;;;6157892;23;19906;-75
2022/03/11 00:22:01;;;;;;;;;;;23.20;99.90;;;;;;6157602;23;19901;-75
2022/03/11 00:24:28;;;;;;;;;;;23.50;99.90;;;;;;6158053;23;19928;-76
2022/03/11 00:26:55;;;;;;;;;;;23.70;99.90;;;;;;6131665;23;20281;-76
2022/03/11 00:29:21;;;;;;;;;;;23.90;99.90;;;;;;6157711;23;20238;-77
2022/03/11 00:31:48;;;;;;;;;;;24.20;99.90;;;;;;6157262;23;20345;-76
2022/03/11 00:34:15;;;;;;;;;;;23.80;99.90;;;;;;6131035;23;19952;-77
2022/03/11 00:36:43;;;;;;;;;;;23.90;99.90;;;;;;6157157;23;19912;-77
2022/03/11 00:39:10;;;;;;;;;;;24.10;99.90;;;;;;6131064;23;19907;-77
2022/03/11 00:41:40;;;;;;;;;;;24.30;99.90;;;;;;6157211;23;19979;-79
2022/03/11 00:44:06;;;;;;;;;;;24.40;99.90;;;;;;6157385;23;19900;-79
2022/03/11 00:46:33;;;;;;;;;;;24.40;99.90;;;;;;6157289;23;19901;-76
2022/03/11 00:49:01;;;;;;;;;;;24.80;99.90;;;;;;6130864;23;19908;-78
2022/03/11 00:51:27;;;;;;;;;;;24.70;99.90;;;;;;6157084;23;19945;-75
2022/03/11 00:53:57;;;;;;;;;;;23.90;99.90;;;;;;6157035;23;19984;-77
2022/03/11 00:56:25;;;;;;;;;;;23.50;99.90;;;;;;6131162;23;19956;-77
2022/03/11 00:58:51;;;;;;;;;;;23.20;99.90;;;;;;6130656;23;19900;-77
2022/03/11 01:01:22;;;;;;;;;;;23.00;99.90;;;;;;6156812;23;20378;-78
2022/03/11 01:03:49;;;;;;;;;;;22.80;99.90;;;;;;6157093;23;19905;-76
2022/03/11 01:06:16;;;;;;;;;;;22.80;99.90;;;;;;6156511;23;19959;-77
2022/03/11 01:08:42;;;;;;;;;;;22.70;99.90;;;;;;6156959;23;20353;-77
2022/03/11 01:11:11;;;;;;;;;;;23.00;99.90;;;;;;6130133;23;19907;-76
2022/03/11 01:13:44;;;;;;;;;;;23.10;99.90;;;;;;6157172;23;19908;-78
2022/03/11 01:16:10;;;;;;;;;;;23.80;99.90;;;;;;6129876;23;19909;-76
2022/03/11 01:18:37;;;;;;;;;;;24.30;99.90;;;;;;6130561;23;19900;-77
2022/03/11 01:21:04;;;;;;;;;;;24.40;99.90;;;;;;6156687;23;19904;-77
2022/03/11 01:23:30;;;;;;;;;;;24.30;99.90;;;;;;6130598;23;20225;-77
2022/03/11 01:25:57;;;;;;;;;;;24.90;99.90;;;;;;6130514;23;19904;-76
2022/03/11 01:28:24;;;;;;;;;;;24.80;99.90;;;;;;6156680;23;19907;-77
2022/03/11 01:30:50;;;;;;;;;;;24.30;99.90;;;;;;6130336;23;20023;-76
2022/03/11 01:33:17;;;;;;;;;;;23.70;99.90;;;;;;6130563;23;19904;-76
2022/03/11 01:35:46;;;;;;;;;;;23.20;99.90;;;;;;6156450;23;19927;-77
2022/03/11 01:38:13;;;;;;;;;;;23.50;99.90;;;;;;6130395;23;19900;-77
2022/03/11 01:40:39;;;;;;;;;;;24.30;99.90;;;;;;6130346;23;19901;-77
2022/03/11 01:43:16;;;;;;;;;;;24.80;99.90;;;;;;6156513;23;19900;-76
2022/03/11 01:45:43;;;;;;;;;;;25.10;99.90;;;;;;6156589;23;19975;-76
2022/03/11 01:48:10;;;;;;;;;;;25.60;99.90;;;;;;6130208;23;19901;-76
2022/03/11 01:50:40;;;;;;;;;;;26.00;99.90;;;;;;6130255;23;19900;-76
2022/03/11 01:53:08;;;;;;;;;;;26.10;99.90;;;;;;6156085;23;19904;-76
2022/03/11 01:55:35;;;;;;;;;;;26.40;99.90;;;;;;6130025;23;20365;-77
2022/03/11 01:58:03;;;;;;;;;;;26.30;99.90;;;;;;6156425;23;19956;-76
2022/03/11 02:00:30;;;;;;;;;;;26.10;99.90;;;;;;6130224;23;19955;-77
2022/03/11 02:02:57;;;;;;;;;;;25.70;99.90;;;;;;6130082;23;19983;-78
2022/03/11 02:05:24;;;;;;;;;;;25.00;99.90;;;;;;6156076;23;19963;-77
2022/03/11 02:07:52;;;;;;;;;;;24.40;99.90;;;;;;6156346;23;19900;-77
2022/03/11 02:10:18;;;;;;;;;;;24.10;99.90;;;;;;6130203;23;19955;-76
2022/03/11 02:12:45;;;;;;;;;;;24.10;99.90;;;;;;6130014;23;19935;-78
2022/03/11 02:15:12;;;;;;;;;;;24.00;99.90;;;;;;6129898;23;19901;-76
2022/03/11 02:17:38;;;;;;;;;;;23.90;99.90;;;;;;6156111;23;19905;-76
2022/03/11 02:20:05;;;;;;;;;;;23.70;99.90;;;;;;6129997;23;19900;-77
2022/03/11 02:22:35;;;;;;;;;;;23.70;99.90;;;;;;6156276;23;19901;-77
2022/03/11 02:25:01;;;;;;;;;;;24.10;99.90;;;;;;6130014;23;19907;-76
2022/03/11 02:27:28;;;;;;;;;;;24.90;99.90;;;;;;6156206;23;19905;-77
2022/03/11 02:29:55;;;;;;;;;;;25.60;99.90;;;;;;6156148;23;19923;-77
2022/03/11 02:32:21;;;;;;;;;;;25.40;99.90;;;;;;6156077;23;19935;-77
2022/03/11 02:34:48;;;;;;;;;;;24.80;99.90;;;;;;6156219;23;20242;-76
2022/03/11 02:37:15;;;;;;;;;;;24.50;99.90;;;;;;6129676;23;19904;-77
2022/03/11 02:39:41;;;;;;;;;;;24.10;99.90;;;;;;6156028;23;20376;-77
2022/03/11 02:42:08;;;;;;;;;;;23.80;99.90;;;;;;6156062;23;19912;-77
2022/03/11 02:44:35;;;;;;;;;;;23.90;99.90;;;;;;6129940;23;20274;-77
2022/03/11 02:47:01;;;;;;;;;;;24.40;99.90;;;;;;6156124;23;19907;-77
2022/03/11 02:49:28;;;;;;;;;;;24.50;99.90;;;;;;6129795;23;20270;-78
2022/03/11 02:51:59;;;;;;;;;;;25.00;99.90;;;;;;6129828;23;19901;-76
2022/03/11 02:54:26;;;;;;;;;;;24.90;99.90;;;;;;6129790;23;19905;-75
2022/03/11 02:56:53;;;;;;;;;;;24.90;99.90;;;;;;6129624;23;19956;-75
2022/03/11 02:59:19;;;;;;;;;;;25.50;99.90;;;;;;6155883;23;19907;-76
2022/03/11 03:01:46;;;;;;;;;;;24.80;99.90;;;;;;6129849;23;19901;-78
2022/03/11 03:04:13;;;;;;;;;;;24.60;99.90;;;;;;6155862;23;19900;-77
2022/03/11 03:06:40;;;;;;;;;;;24.20;99.90;;;;;;6157830;23;19912;-77
2022/03/11 03:09:09;;;;;;;;;;;24.30;99.90;;;;;;6157978;23;19987;-78
2022/03/11 03:11:36;;;;;;;;;;;24.50;99.90;;;;;;6158243;23;19900;-76
2022/03/11 03:14:04;;;;;;;;;;;24.50;99.90;;;;;;6131796;23;19991;-78
2022/03/11 03:16:30;;;;;;;;;;;24.20;99.90;;;;;;6131836;23;20438;-77
2022/03/11 03:18:57;;;;;;;;;;;24.20;99.90;;;;;;6157957;23;19900;-75
2022/03/11 03:21:26;;;;;;;;;;;24.40;99.90;;;;;;6157819;23;19907;-77
2022/03/11 03:23:53;;;;;;;;;;;25.00;99.90;;;;;;6131257;23;19900;-75
2022/03/11 03:26:20;;;;;;;;;;;25.90;99.90;;;;;;6131212;23;19911;-74
2022/03/11 03:28:46;;;;;;;;;;;26.20;99.90;;;;;;6157716;23;19900;-74
2022/03/11 03:31:13;;;;;;;;;;;26.80;99.90;;;;;;6131371;23;19983;-76
2022/03/11 03:33:40;;;;;;;;;;;26.80;99.90;;;;;;6157599;23;19912;-76
2022/03/11 03:36:06;;;;;;;;;;;26.60;99.90;;;;;;6157630;23;19904;-77
2022/03/11 03:38:33;;;;;;;;;;;25.90;99.90;;;;;;6131422;23;20390;-76
2022/03/11 03:40:59;;;;;;;;;;;25.90;99.90;;;;;;6131451;23;19928;-77
2022/03/11 03:43:26;;;;;;;;;;;25.60;99.90;;;;;;6157687;23;19967;-76
2022/03/11 03:45:53;;;;;;;;;;;25.80;99.90;;;;;;6157475;23;20212;-76
2022/03/11 03:48:19;;;;;;;;;;;26.50;99.90;;;;;;6157584;23;19923;-77
2022/03/11 03:50:46;;;;;;;;;;;26.90;99.90;;;;;;6157403;23;19900;-75
2022/03/11 03:53:13;;;;;;;;;;;26.60;99.90;;;;;;6131275;23;20234;-76
2022/03/11 03:55:39;;;;;;;;;;;27.00;99.90;;;;;;6131128;23;19905;-75
2022/03/11 03:58:07;;;;;;;;;;;27.20;99.90;;;;;;6157408;23;19907;-75
2022/03/11 04:00:34;;;;;;;;;;;26.60;99.90;;;;;;6157312;23;19900;-75
2022/03/11 04:03:01;;;;;;;;;;;26.20;99.90;;;;;;6131229;23;19901;-77
2022/03/11 04:05:28;;;;;;;;;;;26.30;99.90;;;;;;6157006;23;19916;-76
2022/03/11 04:07:54;;;;;;;;;;;26.60;99.90;;;;;;6157346;23;19904;-76
2022/03/11 04:10:21;;;;;;;;;;;26.80;99.90;;;;;;6157260;23;19908;-75
2022/03/11 04:12:48;;;;;;;;;;;26.90;99.90;;;;;;6157368;23;19952;-76
2022/03/11 04:15:15;;;;;;;;;;;27.00;99.90;;;;;;6157188;23;19956;-75
2022/03/11 04:17:41;;;;;;;;;;;26.90;99.90;;;;;;6156905;23;19979;-76
2022/03/11 04:20:08;;;;;;;;;;;26.50;99.90;;;;;;6157179;23;19905;-75
2022/03/11 04:22:42;;;;;;;;;;;26.10;99.90;;;;;;6131012;23;19901;-75
2022/03/11 04:25:10;;;;;;;;;;;26.00;99.90;;;;;;6130791;23;19904;-77
2022/03/11 04:27:36;;;;;;;;;;;25.80;99.90;;;;;;6157065;23;19939;-76
2022/03/11 04:30:04;;;;;;;;;;;25.70;99.90;;;;;;6130902;23;20315;-76
2022/03/11 04:32:31;;;;;;;;;;;26.00;99.90;;;;;;6157036;23;20281;-76
2022/03/11 04:34:57;;;;;;;;;;;25.90;99.90;;;;;;6157067;23;19904;-75
2022/03/11 04:37:24;;;;;;;;;;;25.20;99.90;;;;;;6157068;23;19905;-76
2022/03/11 04:39:51;;;;;;;;;;;24.80;99.90;;;;;;6130733;23;19905;-75
2022/03/11 04:42:17;;;;;;;;;;;24.60;99.90;;;;;;6156898;23;20315;-75
2022/03/11 04:44:44;;;;;;;;;;;24.30;99.90;;;;;;6130691;23;19908;-75
2022/03/11 04:47:10;;;;;;;;;;;24.00;99.90;;;;;;6130603;23;19928;-75
2022/03/11 04:49:37;;;;;;;;;;;23.80;99.90;;;;;;6157024;23;20328;-77
2022/03/11 04:52:05;;;;;;;;;;;23.90;99.90;;;;;;6130607;23;19900;-76
2022/03/11 04:54:32;;;;;;;;;;;24.60;99.90;;;;;;6156922;23;19901;-76
2022/03/11 04:56:58;;;;;;;;;;;25.20;99.90;;;;;;6156727;23;19937;-76
2022/03/11 04:59:25;;;;;;;;;;;25.60;99.90;;;;;;6130610;23;19907;-75
2022/03/11 05:01:51;;;;;;;;;;;26.10;99.90;;;;;;6130542;23;19904;-76
2022/03/11 05:04:18;;;;;;;;;;;26.10;99.90;;;;;;6156826;23;19951;-76
2022/03/11 05:06:45;;;;;;;;;;;26.30;99.90;;;;;;6156650;23;20241;-76
2022/03/11 05:09:11;;;;;;;;;;;26.20;99.90;;;;;;6156839;23;20372;-75
2022/03/11 05:11:38;;;;;;;;;;;26.20;99.90;;;;;;6156643;23;19911;-75
2022/03/11 05:14:05;;;;;;;;;;;25.90;99.90;;;;;;6156649;23;19900;-76
2022/03/11 05:16:31;;;;;;;;;;;25.70;99.90;;;;;;6156672;23;19959;-74
2022/03/11 05:18:58;;;;;;;;;;;26.10;99.90;;;;;;6156713;23;19940;-75
2022/03/11 05:21:24;;;;;;;;;;;26.00;99.90;;;;;;6130280;23;20300;-76
2022/03/11 05:23:51;;;;;;;;;;;26.20;99.90;;;;;;6130368;23;19907;-75
2022/03/11 05:26:28;;;;;;;;;;;26.00;99.90;;;;;;6156586;23;20011;-75
2022/03/11 05:28:57;;;;;;;;;;;26.00;99.90;;;;;;6156148;23;19954;-75
2022/03/11 05:31:25;;;;;;;;;;;26.10;99.90;;;;;;6156532;23;19901;-74
2022/03/11 05:33:52;;;;;;;;;;;26.20;99.90;;;;;;6156510;23;19900;-75
2022/03/11 05:36:19;;;;;;;;;;;26.30;99.90;;;;;;6156354;23;19915;-76
2022/03/11 05:38:45;;;;;;;;;;;25.90;99.90;;;;;;6156566;23;20318;-76
2022/03/11 05:41:12;;;;;;;;;;;25.80;99.90;;;;;;6130217;23;19979;-76
2022/03/11 05:43:39;;;;;;;;;;;25.50;99.90;;;;;;6130109;23;19901;-76
2022/03/11 05:46:06;;;;;;;;;;;25.00;99.90;;;;;;6156430;23;19947;-74
2022/03/11 05:48:32;;;;;;;;;;;25.00;99.90;;;;;;6156414;23;19908;-77
2022/03/11 05:50:59;;;;;;;;;;;25.00;99.90;;;;;;6130107;23;19907;-76
2022/03/11 05:53:26;;;;;;;;;;;25.40;99.90;;;;;;6156147;23;19955;-72
2022/03/11 05:55:53;;;;;;;;;;;25.50;99.90;;;;;;6156204;23;20238;-76
2022/03/11 05:58:20;;;;;;;;;;;25.50;99.90;;;;;;6156290;23;19904;-76
2022/03/11 06:00:46;;;;;;;;;;;25.20;99.90;;;;;;6129900;23;20306;-76
2022/03/11 06:03:13;;;;;;;;;;;25.30;99.90;;;;;;6156068;23;19909;-76
2022/03/11 06:05:40;;;;;;;;;;;25.40;99.90;;;;;;6156095;23;19971;-76
2022/03/11 06:08:06;;;;;;;;;;;24.90;99.90;;;;;;6129888;23;20333;-76
2022/03/11 06:10:33;;;;;;;;;;;24.40;99.90;;;;;;6156341;23;19901;-76
2022/03/11 06:13:00;;;;;;;;;;;24.00;99.90;;;;;;6130050;23;19979;-76
2022/03/11 06:15:27;;;;;;;;;;;23.90;99.90;;;;;;6156179;23;19901;-77
2022/03/11 06:17:54;;;;;;;;;;;23.80;99.90;;;;;;6156044;23;19901;-75
2022/03/11 06:20:21;;;;;;;;;;;23.70;99.90;;;;;;6156121;23;20337;-76
2022/03/11 06:22:49;;;;;;;;;;;23.70;99.90;;;;;;6156179;23;19935;-78
2022/03/11 06:25:16;;;;;;;;;;;23.50;99.90;;;;;;6129952;23;19947;-76
2022/03/11 06:27:43;;;;;;;;;;;23.30;99.90;;;;;;6156041;23;19979;-77
2022/03/11 06:30:11;;;;;;;;;;;23.20;99.90;;;;;;6129829;23;19979;-76
2022/03/11 06:32:42;;;;;;;;;;;23.00;99.90;;;;;;6129740;23;19904;-75
2022/03/11 06:35:10;;;;;;;;;;;22.80;99.90;;;;;;6155850;23;20281;-76
2022/03/11 06:37:37;;;;;;;;;;;22.90;99.90;;;;;;6129749;23;20255;-76
2022/03/11 06:40:04;;;;;;;;;;;23.20;99.90;;;;;;6155669;23;20334;-74
2022/03/11 06:42:37;;;;;;;;;;;23.70;99.90;;;;;;6129544;23;19900;-73
2022/03/11 06:45:05;;;;;;;;;;;24.10;99.90;;;;;;6155975;23;20277;-75
2022/03/11 06:47:32;;;;;;;;;;;23.70;99.90;;;;;;6129754;23;19907;-73
2022/03/11 06:49:58;;;;;;;;;;;23.30;99.90;;;;;;6129590;23;19912;-75
2022/03/11 06:52:25;;;;;;;;;;;22.90;99.90;;;;;;6155894;23;20187;-75
2022/03/11 06:54:52;;;;;;;;;;;22.70;99.90;;;;;;6155672;23;20001;-74
2022/03/11 06:57:18;;;;;;;;;;;22.50;99.90;;;;;;6156067;23;20233;-75
2022/03/11 06:59:45;;;;;;;;;;;22.40;99.90;;;;;;6155815;23;19988;-74
2022/03/11 07:02:12;;;;;;;;;;;22.30;99.90;;;;;;6155826;23;20322;-74
2022/03/11 07:04:38;;;;;;;;;;;22.30;99.90;;;;;;6129224;23;19991;-75
2022/03/11 07:07:05;;;;;;;;;;;22.20;99.90;;;;;;6155886;23;20280;-75
2022/03/11 07:09:32;;;;;;;;;;;22.20;99.90;;;;;;6155718;23;20233;-75
2022/03/11 07:12:01;;;;;;;;;;;22.00;99.90;;;;;;6129655;23;19932;-75
2022/03/11 07:14:28;;;;;;;;;;;22.00;99.90;;;;;;6155725;23;19901;-75
2022/03/11 07:16:56;;;;;;;;;;;22.60;99.90;;;;;;6155745;23;19958;-75
2022/03/11 07:19:23;;;;;;;;;;;23.30;99.90;;;;;;6155801;23;20234;-75
2022/03/11 07:21:50;;;;;;;;;;;23.70;99.90;;;;;;6129642;23;19900;-75
2022/03/11 07:24:16;;;;;;;;;;;23.70;99.90;;;;;;6129142;23;20234;-74
2022/03/11 07:26:43;;;;;;;;;;;23.60;99.90;;;;;;6155946;23;19996;-74
2022/03/11 07:29:10;;;;;;;;;;;23.30;99.90;;;;;;6129576;23;19951;-74
2022/03/11 07:31:36;;;;;;;;;;;23.00;99.90;;;;;;6155699;23;19901;-75
2022/03/11 07:34:03;;;;;;;;;;;22.80;99.90;;;;;;6155574;23;20242;-75
2022/03/11 07:36:32;;;;;;;;;;;22.60;99.90;;;;;;6155402;23;19911;-75
2022/03/11 07:38:59;;;;;;;;;;;22.30;99.90;;;;;;6129497;23;20389;-74
2022/03/11 07:41:26;;;;;;;;;;;22.10;99.90;;;;;;6129222;23;19901;-75
2022/03/11 07:43:53;;;;;;;;;;;21.90;99.90;;;;;;6155655;23;19939;-75
2022/03/11 07:46:21;;;;;;;;;;;21.70;99.90;;;;;;6155867;23;19900;-75
2022/03/11 07:48:47;;;;;;;;;;;21.60;99.90;;;;;;6155472;23;19936;-74
2022/03/11 07:51:14;;;;;;;;;;;21.50;99.90;;;;;;6155648;23;19900;-75
2022/03/11 07:53:41;;;;;;;;;;;21.40;99.90;;;;;;6157331;23;19932;-75
2022/03/11 07:56:08;;;;;;;;;;;21.30;99.90;;;;;;6157252;23;19904;-74
2022/03/11 07:58:34;;;;;;;;;;;21.30;99.90;;;;;;6157469;23;19945;-75
2022/03/11 08:01:01;;;;;;;;;;;21.20;99.90;;;;;;6157198;23;19900;-75
2022/03/11 08:03:28;;;;;;;;;;;21.10;99.90;;;;;;6157376;23;20004;-75
2022/03/11 08:05:54;;;;;;;;;;;21.00;99.90;;;;;;6157075;23;19908;-75
2022/03/11 08:08:21;;;;;;;;;;;21.00;99.90;;;;;;6157367;23;20277;-74
2022/03/11 08:10:48;;;;;;;;;;;20.90;99.90;;;;;;6157282;23;19908;-75
2022/03/11 08:13:15;;;;;;;;;;;20.90;99.90;;;;;;6157183;23;19900;-75
2022/03/11 08:15:41;;;;;;;;;;;20.90;99.90;;;;;;6157038;23;19908;-75
2022/03/11 08:18:08;;;;;;;;;;;20.80;99.90;;;;;;6157222;23;19904;-74
2022/03/11 08:20:35;;;;;;;;;;;20.70;99.90;;;;;;6157320;23;19901;-75
2022/03/11 08:23:02;;;;;;;;;;;20.70;99.90;;;;;;6157238;23;19907;-75
2022/03/11 08:25:30;;;;;;;;;;;20.70;99.90;;;;;;6157267;23;19900;-74
2022/03/11 08:27:57;;;;;;;;;;;20.70;99.90;;;;;;6157277;23;19928;-74
2022/03/11 08:30:25;;;;;;;;;;;20.60;99.90;;;;;;6131055;23;19923;-73
2022/03/11 08:32:53;;;;;;;;;;;20.60;99.90;;;;;;6156470;23;19904;-73
2022/03/11 08:35:20;;;;;;;;;;;20.60;99.90;;;;;;6156287;23;19947;-75
2022/03/11 08:37:47;;;;;;;;;;;20.60;99.90;;;;;;6156484;23;19908;-74
2022/03/11 08:40:14;;;;;;;;;;;20.60;99.90;;;;;;6130123;23;19901;-74
2022/03/11 08:42:41;;;;;;;;;;;20.60;99.90;;;;;;6156257;23;19900;-74
2022/03/11 08:45:10;;;;;;;;;;;20.60;99.90;;;;;;6130208;23;19905;-74
2022/03/11 08:47:37;;;;;;;;;;;20.60;99.90;;;;;;6130062;23;20265;-74
2022/03/11 08:50:04;;;;;;;;;;;20.60;99.90;;;;;;6156299;23;20206;-74
2022/03/11 08:52:31;;;;;;;;;;;20.60;99.90;;;;;;6130166;23;19947;-74
2022/03/11 08:54:57;;;;;;;;;;;20.60;99.90;;;;;;6130126;23;19908;-76
2022/03/11 08:57:24;;;;;;;;;;;20.60;99.90;;;;;;6156071;23;19959;-75
2022/03/11 08:59:52;;;;;;;;;;;20.70;99.90;;;;;;6156119;23;19955;-77
2022/03/11 09:02:19;;;;;;;;;;;20.70;99.90;;;;;;6129734;23;19911;-75
2022/03/11 09:04:46;;;;;;;;;;;20.70;99.90;;;;;;6155824;23;19911;-74
2022/03/11 09:07:13;;;;;;;;;;;20.80;99.90;;;;;;6129934;23;20314;-75
2022/03/11 09:09:39;;;;;;;;;;;20.70;99.90;;;;;;6156974;23;19900;-75
2022/03/11 09:12:06;;;;;;;;;;;20.80;99.90;;;;;;6156991;23;19922;-74
2022/03/11 09:14:33;;;;;;;;;;;20.70;99.90;;;;;;6156799;23;20245;-74
2022/03/11 09:17:00;;;;;;;;;;;20.70;99.90;;;;;;6156750;23;20314;-74
2022/03/11 09:19:27;;;;;;;;;;;20.60;99.90;;;;;;6130686;23;19972;-74
2022/03/11 09:21:53;;;;;;;;;;;20.60;99.90;;;;;;6128977;23;19979;-75
2022/03/11 09:24:20;;;;;;;;;;;20.60;99.90;;;;;;6130460;23;19955;-75
2022/03/11 09:26:49;;;;;;;;;;;20.60;99.90;;;;;;6156689;23;19970;-75
2022/03/11 09:29:16;;;;;;;;;;;20.60;99.90;;;;;;6130526;23;19902;-74
2022/03/11 09:31:42;;;;;;;;;;;20.50;99.90;;;;;;6130571;23;19900;-75
2022/03/11 09:34:09;;;;;;;;;;;20.50;99.90;;;;;;6156632;23;19901;-75
2022/03/11 09:36:36;;;;;;;;;;;20.50;99.90;;;;;;6130335;23;19908;-75
2022/03/11 09:39:03;;;;;;;;;;;20.50;99.90;;;;;;6156653;23;20277;-75
2022/03/11 09:41:30;;;;;;;;;;;20.50;99.90;;;;;;6156624;23;19907;-75
2022/03/11 09:43:57;;;;;;;;;;;20.40;99.90;;;;;;6156581;23;19909;-75
2022/03/11 09:46:24;;;;;;;;;;;20.40;99.90;;;;;;6130364;23;19956;-74
2022/03/11 09:48:51;;;;;;;;;;;20.40;99.90;;;;;;6156594;23;19905;-76
2022/03/11 09:51:19;;;;;;;;;;;20.30;99.90;;;;;;6156484;23;19911;-76
2022/03/11 09:53:46;;;;;;;;;;;20.30;99.90;;;;;;6156435;23;19932;-77
2022/03/11 09:56:12;;;;;;;;;;;20.30;99.90;;;;;;6156329;23;20282;-75
2022/03/11 09:58:39;;;;;;;;;;;20.30;99.90;;;;;;6130174;23;19904;-76
2022/03/11 10:01:06;;;;;;;;;;;20.30;99.90;;;;;;6156137;23;20403;-76
2022/03/11 10:03:32;;;;;;;;;;;20.30;99.90;;;;;;6129900;23;19907;-77
2022/03/11 10:05:59;;;;;;;;;;;20.30;99.90;;;;;;6156040;23;19916;-75
2022/03/11 10:08:35;;;;;;;;;;;20.20;99.90;;;;;;6156248;23;19912;-76
2022/03/11 10:11:27;;;;;;;;;;;20.20;99.90;;;;;;6130071;23;19908;-74
2022/03/11 10:13:55;;;;;;;;;;;20.20;99.90;;;;;;6149575;23;19900;-76
2022/03/11 10:16:23;;;;;;;;;;;20.30;99.90;;;;;;6129643;23;19909;-75
2022/03/11 10:19:15;;;;;;;;;;;20.30;99.90;;;;;;6156110;23;19907;-75
2022/03/11 10:21:44;;;;;;;;;;;20.30;99.90;;;;;;6139971;23;20369;-75
2022/03/11 10:24:12;;;;;;;;;;;20.30;99.90;;;;;;6156011;23;20270;-75
2022/03/11 10:26:40;;;;;;;;;;;20.30;99.90;;;;;;6156064;23;19909;-75
2022/03/11 10:29:08;;;;;;;;;;;20.30;99.90;;;;;;6156061;23;19907;-74
2022/03/11 10:31:36;;;;;;;;;;;20.30;99.90;;;;;;6156005;23;19907;-75
2022/03/11 10:34:15;;;;;;;;;;;20.30;99.90;;;;;;6155990;23;19971;-75
2022/03/11 10:36:51;;;;;;;;;;;20.30;99.90;;;;;;6155956;23;19979;-74
2022/03/11 10:39:19;;;;;;;;;;;20.20;99.90;;;;;;6156084;23;19907;-75
2022/03/11 10:41:49;;;;;;;;;;;20.20;99.90;;;;;;6156018;23;19928;-74
2022/03/11 10:44:22;;;;;;;;;;;20.20;99.90;;;;;;6129798;23;19943;-75
2022/03/11 10:46:49;;;;;;;;;;;20.20;99.90;;;;;;6155942;23;19904;-76
2022/03/11 10:49:33;;;;;;;;;;;20.20;99.90;;;;;;6156054;23;19900;-77
2022/03/11 10:52:01;;;;;;;;;;;20.20;99.90;;;;;;6155994;23;19900;-76
2022/03/11 10:54:28;;;;;;;;;;;20.20;99.90;;;;;;6155951;23;19951;-76
2022/03/11 10:56:55;;;;;;;;;;;20.30;99.90;;;;;;6155822;23;20326;-77
2022/03/11 10:59:22;;;;;;;;;;;20.30;99.90;;;;;;6129765;23;19900;-74
2022/03/11 11:01:51;;;;;;;;;;;20.30;99.90;;;;;;6129640;23;19901;-77
2022/03/11 11:04:18;;;;;;;;;;;20.30;99.90;;;;;;6155909;23;19904;-76
2022/03/11 11:06:45;;;;;;;;;;;20.30;99.90;;;;;;6155617;23;20285;-75
2022/03/11 11:09:17;;;;;;;;;;;20.30;99.90;;;;;;6155710;23;19931;-76
2022/03/11 11:11:44;;;;;;;;;;;20.20;99.90;;;;;;6155920;23;19912;-74
2022/03/11 11:14:11;;;;;;;;;;;20.20;99.90;;;;;;6155907;23;19901;-78
2022/03/11 11:16:42;;;;;;;;;;;20.20;99.90;;;;;;6155753;23;20246;-75
2022/03/11 11:19:27;;;;;;;;;;;20.10;99.90;;;;;;6155879;23;20289;-75
2022/03/11 11:21:54;;;;;;;;;;;20.20;99.90;;;;;;6129679;23;19908;-75
2022/03/11 11:24:25;;;;;;;;;;;20.10;99.90;;;;;;6155807;23;20277;-76
2022/03/11 11:26:55;;;;;;;;;;;20.00;99.90;;;;;;6157074;23;19901;-75
2022/03/11 11:29:26;;;;;;;;;;;20.00;99.90;;;;;;6157707;23;19900;-75
2022/03/11 11:31:53;;;;;;;;;;;20.00;99.90;;;;;;6157764;23;19901;-75
2022/03/11 11:34:30;;;;;;;;;;;20.00;99.90;;;;;;6131563;23;19901;-74
2022/03/11 11:36:57;;;;;;;;;;;19.90;99.90;;;;;;6157566;23;19960;-75
2022/03/11 11:39:34;;;;;;;;;;;19.90;99.90;;;;;;6157749;23;19901;-75
2022/03/11 11:42:06;;;;;;;;;;;19.80;99.90;;;;;;6157677;23;19904;-74
2022/03/11 11:44:37;;;;;;;;;;;19.80;99.90;;;;;;6157679;23;19984;-75
2022/03/11 11:47:07;;;;;;;;;;;19.70;99.90;;;;;;6157583;23;20334;-77
2022/03/11 11:50:00;;;;;;;;;;;19.70;99.90;;;;;;6157284;23;19901;-74
2022/03/11 11:52:29;;;;;;;;;;;19.70;99.90;;;;;;6150621;23;19900;-75
2022/03/11 11:55:13;;;;;;;;;;;19.60;99.90;;;;;;6131315;23;20230;-75
2022/03/11 11:57:43;;;;;;;;;;;19.60;99.90;;;;;;6131067;23;19908;-75
2022/03/11 12:00:27;;;;;;;;;;;19.60;99.90;;;;;;6157371;23;19901;-74
2022/03/11 12:02:54;;;;;;;;;;;19.50;99.90;;;;;;6157358;23;19900;-76
2022/03/11 12:05:40;;;;;;;;;;;19.50;99.90;;;;;;6157158;23;19985;-74
2022/03/11 12:08:06;;;;;;;;;;;19.50;99.90;;;;;;6157286;23;20325;-74
2022/03/11 12:10:33;;;;;;;;;;;19.50;99.90;;;;;;6157401;23;19900;-76
2022/03/11 12:13:01;;;;;;;;;;;19.50;99.90;;;;;;6157228;23;19907;-75
2022/03/11 12:15:31;;;;;;;;;;;19.50;99.90;;;;;;6157200;23;19916;-75
2022/03/11 12:18:02;;;;;;;;;;;19.50;99.90;;;;;;6131029;23;19920;-74
2022/03/11 12:20:46;;;;;;;;;;;19.50;99.90;;;;;;6157303;23;19940;-75
2022/03/11 12:23:15;;;;;;;;;;;19.60;99.90;;;;;;6131045;23;19935;-74
2022/03/11 12:25:46;;;;;;;;;;;19.60;99.90;;;;;;6130952;23;19908;-75
2022/03/11 12:28:18;;;;;;;;;;;19.50;99.90;;;;;;6156877;23;19908;-74
2022/03/11 12:30:48;;;;;;;;;;;19.50;99.90;;;;;;6156851;23;19911;-74
2022/03/11 12:33:15;;;;;;;;;;;19.60;99.90;;;;;;6156929;23;19904;-74
2022/03/11 12:35:43;;;;;;;;;;;19.50;99.90;;;;;;6156888;23;19913;-74
2022/03/11 12:38:12;;;;;;;;;;;19.60;99.90;;;;;;6156637;23;19979;-75
2022/03/11 12:40:38;;;;;;;;;;;19.60;99.90;;;;;;6157130;23;19926;-75
2022/03/11 12:43:08;;;;;;;;;;;19.60;99.90;;;;;;6157000;23;19980;-74
2022/03/11 12:45:37;;;;;;;;;;;19.50;99.90;;;;;;6130714;23;19900;-74
2022/03/11 12:48:04;;;;;;;;;;;19.50;99.90;;;;;;6156961;23;19924;-74
2022/03/11 12:50:31;;;;;;;;;;;19.40;99.90;;;;;;6156871;23;20314;-73
2022/03/11 12:52:58;;;;;;;;;;;19.40;99.90;;;;;;6156947;23;19900;-74
2022/03/11 12:55:31;;;;;;;;;;;19.30;99.90;;;;;;6156769;23;19900;-76
2022/03/11 12:58:02;;;;;;;;;;;19.20;99.90;;;;;;6157087;23;19960;-75
2022/03/11 13:00:30;;;;;;;;;;;19.20;99.90;;;;;;6157069;23;19935;-74
2022/03/11 13:02:57;;;;;;;;;;;19.20;99.90;;;;;;6156485;23;19908;-75
2022/03/11 13:05:33;;;;;;;;;;;19.00;99.90;;;;;;6129547;23;19920;-74
2022/03/11 13:08:04;;;;;;;;;;;19.00;99.90;;;;;;6129150;23;19900;-77
2022/03/11 13:10:31;;;;;;;;;;;18.90;99.90;;;;;;6155334;23;19906;-76
2022/03/11 13:12:58;;;;;;;;;;;18.80;99.90;;;;;;6129212;23;19904;-75
2022/03/11 13:15:27;;;;;;;;;;;18.80;99.90;;;;;;6129047;23;19954;-75
2022/03/11 13:17:56;;;;;;;;;;;18.70;99.90;;;;;;6155337;23;19901;-75
2022/03/11 13:20:29;;;;;;;;;;;18.70;99.90;;;;;;6129120;23;20241;-75
2022/03/11 13:23:13;;;;;;;;;;;18.70;99.90;;;;;;6155139;23;19922;-75
2022/03/11 13:25:41;;;;;;;;;;;18.60;99.90;;;;;;6128996;23;19935;-74
2022/03/11 13:28:08;;;;;;;;;;;18.60;99.90;;;;;;6155262;23;19909;-75
2022/03/11 13:30:39;;;;;;;;;;;18.60;99.90;;;;;;6155289;23;20242;-75
2022/03/11 13:33:11;;;;;;;;;;;18.60;99.90;;;;;;6155321;23;19900;-74
2022/03/11 13:35:38;;;;;;;;;;;18.60;99.90;;;;;;6155194;23;19905;-74
2022/03/11 13:38:05;;;;;;;;;;;18.50;99.90;;;;;;6155219;23;19908;-75
2022/03/11 13:40:31;;;;;;;;;;;18.50;99.90;;;;;;6155250;23;19904;-75
2022/03/11 13:43:03;;;;;;;;;;;18.50;99.90;;;;;;6155245;23;20326;-75
2022/03/11 13:45:31;;;;;;;;;;;18.50;99.90;;;;;;6129086;23;19900;-73
2022/03/11 13:48:05;;;;;;;;;;;18.40;99.90;;;;;;6128985;23;20215;-74
2022/03/11 13:50:32;;;;;;;;;;;18.40;99.90;;;;;;6154437;23;20301;-74
2022/03/11 13:52:59;;;;;;;;;;;18.30;99.90;;;;;;6155028;23;19927;-75
2022/03/11 13:55:36;;;;;;;;;;;18.20;99.90;;;;;;6155038;23;20238;-75
2022/03/11 13:58:32;;;;;;;;;;;18.20;99.90;;;;;;6129380;23;20318;-75
2022/03/11 14:01:09;;;;;;;;;;;18.10;99.90;;;;;;6099029;23;19947;-75
2022/03/11 14:03:45;;;;;;;;;;;18.10;99.90;;;;;;6155261;23;19923;-75
2022/03/11 14:06:12;;;;;;;;;;;18.10;99.90;;;;;;6019428;23;3208216;-74
2022/03/11 14:08:39;;;;;;;;;;;18.00;99.90;;;;;;6156308;23;19967;-75
2022/03/11 14:11:06;;;;;;;;;;;18.00;99.90;;;;;;6130157;23;19901;-75
2022/03/11 14:13:35;;;;;;;;;;;18.00;99.90;;;;;;6130009;23;19908;-74
2022/03/11 14:16:06;;;;;;;;;;;18.10;99.90;;;;;;6129893;23;19983;-75
2022/03/11 14:18:33;;;;;;;;;;;18.00;99.90;;;;;;6156107;23;19901;-75
2022/03/11 14:21:00;;;;;;;;;;;18.10;99.90;;;;;;6156082;23;19900;-75
2022/03/11 14:23:30;;;;;;;;;;;18.00;99.90;;;;;;6156059;23;19967;-75